Flight Track Log - Related Links

Times and Time Zones

All times are in EDT time to prevent confusion due to time zone crossing. See the N269ML flight status page for this flight to view local times or setup timezone preferences in your user account.

Time Position Orientation Groundspeed Altitude Reporting Facility
EDT Latitude Longitude Course Direction KTS MPH feet Rate Location/Type
Tue 02:30:54 PM 43.9392 -92.5439 199° South 148 170 3,100  Level Minneapolis Center
Tue 02:32:08 PM 43.9086 -92.5783 219° Southwest 152 175 5,100 2,029 Climbing Minneapolis Center
Tue 02:33:10 PM 43.8550 -92.6011 197° South 153 176 7,700 2,118 Climbing Minneapolis Center
Tue 02:34:24 PM 43.8172 -92.6164 196° South 147 169 9,900 1,708 Climbing Minneapolis Center
Tue 02:35:27 PM 43.7719 -92.6358 197° South 144 166 11,600 1,488 Climbing Minneapolis Center
Tue 02:36:00 PM 43.5527 -92.6692 199° South  Level Estimated
Tue 02:36:29 PM 43.7250 -92.6569 198° South 162 186 13,000  Level Minneapolis Center
Tue 02:37:31 PM 43.6783 -92.6803 200° South 175 201 14,700 1,597 Climbing Minneapolis Center
Tue 02:38:33 PM 43.6256 -92.7050 199° South 172 198 16,300 1,355 Climbing Minneapolis Center
Tue 02:39:35 PM 43.5803 -92.7247 198° South 171 197 17,500 1,210 Climbing Minneapolis Center
Tue 02:40:37 PM 43.5308 -92.7481 199° South 185 213 18,800 1,065 Climbing Minneapolis Center
Tue 02:41:39 PM 43.4828 -92.7697 198° South 185 213 19,700 794 Climbing Minneapolis Center
Tue 02:42:53 PM 43.4331 -92.7944 200° South 191 220 20,600 926 Climbing Minneapolis Center
Tue 02:43:55 PM 43.3642 -92.8228 197° South 187 215 21,800 968 Climbing Minneapolis Center
Tue 02:44:57 PM 43.3156 -92.8481 201° Southwest 187 215 22,600 774 Climbing Minneapolis Center
Tue 02:45:59 PM 43.2667 -92.8700 198° South 187 215 23,400 677 Climbing Minneapolis Center
Tue 02:47:01 PM 43.2183 -92.8936 200° South 187 215 24,000 677 Climbing Minneapolis Center
Tue 02:48:03 PM 43.1594 -92.9206 198° South 187 215 24,800 629 Climbing Minneapolis Center
Tue 02:49:05 PM 43.1108 -92.9431 199° South 188 216 25,300 581 Climbing Minneapolis Center
Tue 02:50:07 PM 43.0608 -92.9644 197° South 189 217 26,000 581 Climbing Minneapolis Center
Tue 02:51:09 PM 43.0119 -92.9878 199° South 188 216 26,500 484 Climbing Minneapolis Center
Tue 02:52:11 PM 42.9631 -93.0103 199° South 188 216 27,000 581 Climbing Minneapolis Center
Tue 02:53:13 PM 42.9042 -93.0358 198° South 186 214 27,700 484 Climbing Minneapolis Center
Tue 02:54:15 PM 42.8556 -93.0597 200° South 188 216 28,000 145 Climbing Minneapolis Center
Tue 02:55:17 PM 42.8031 -93.0819 197° South 194 223 28,000  Level Minneapolis Center
Tue 02:56:19 PM 42.7469 -93.1075 198° South 207 238 28,000  Level Minneapolis Center
Tue 02:57:21 PM 42.6906 -93.1350 200° South 216 249 28,000  Level Minneapolis Center
Tue 02:58:23 PM 42.6228 -93.1656 198° South 216 249 28,000  Level Minneapolis Center
Tue 02:59:27 PM 42.5656 -93.1922 199° South 218 251 28,000  Level Minneapolis Center
Tue 03:00:28 PM 42.5086 -93.2167 198° South 218 251 28,000  Level Minneapolis Center
Tue 03:01:30 PM 42.4511 -93.2431 199° South 220 253 28,000  Level Minneapolis Center
Tue 03:02:32 PM 42.3836 -93.2733 198° South 216 249 28,000  Level Minneapolis Center
Tue 03:03:34 PM 42.3272 -93.2981 198° South 216 249 28,000  Level Minneapolis Center
Tue 03:04:36 PM 42.2700 -93.3236 198° South 218 251 28,000  Level Minneapolis Center
Tue 03:05:38 PM 42.2142 -93.3492 199° South 216 249 28,000  Level Minneapolis Center
Tue 03:06:40 PM 42.1586 -93.3728 197° South 214 246 28,000  Level Minneapolis Center
Tue 03:07:54 PM 42.0906 -93.4033 198° South 217 250 28,000  Level Minneapolis Center
Tue 03:08:56 PM 42.0206 -93.4344 198° South 221 254 28,000  Level Minneapolis Center
Tue 03:09:58 PM 41.9636 -93.4608 199° South 219 252 28,000  Level Minneapolis Center
Tue 03:11:00 PM 41.9081 -93.4867 199° South 221 254 28,000  Level Minneapolis Center
Tue 03:12:02 PM 41.8389 -93.5164 198° South 220 253 28,000  Level Minneapolis Center
Tue 03:13:04 PM 41.7817 -93.5394 197° South 216 249 28,000  Level Minneapolis Center
Tue 03:14:05 PM 41.7231 -93.5681 200° South 223 257 28,000  Level Minneapolis Center
Tue 03:15:19 PM 41.6653 -93.5933 198° South 222 255 28,000  Level Minneapolis Center
Tue 03:16:22 PM 41.5961 -93.6200 196° South 221 254 28,000  Level Minneapolis Center
Tue 03:17:23 PM 41.5278 -93.6494 198° South 218 251 28,000  Level Minneapolis Center
Tue 03:18:28 PM 41.4694 -93.6742 198° South 220 253 28,000  Level Minneapolis Center
Tue 03:19:30 PM 41.4117 -93.6983 197° South 220 253 28,000  Level Minneapolis Center
Tue 03:20:31 PM 41.3547 -93.7261 200° South 220 253 28,000  Level Minneapolis Center
Tue 03:21:33 PM 41.2850 -93.7542 197° South 221 254 28,000  Level Minneapolis Center
Tue 03:22:35 PM 41.2275 -93.7783 198° South 220 253 28,000  Level Minneapolis Center
Tue 03:23:37 PM 41.1692 -93.8047 199° South 221 254 28,000  Level Minneapolis Center
Tue 03:24:39 PM 41.1103 -93.8297 198° South 223 257 28,000  Level Minneapolis Center
Tue 03:25:40 PM 41.0639 -93.8489 197° South 223 257 28,000  Level Minneapolis Center
Tue 03:26:42 PM 40.9819 -93.8844 198° South 222 255 28,000  Level Minneapolis Center
Tue 03:27:44 PM 40.9236 -93.9100 198° South 223 257 28,000  Level Minneapolis Center
Tue 03:28:46 PM 40.8647 -93.9342 197° South 224 258 28,000  Level Minneapolis Center
Tue 03:29:48 PM 40.8047 -93.9603 198° South 226 260 28,000  Level Minneapolis Center
Tue 03:30:50 PM 40.7447 -93.9856 198° South 228 262 28,000  Level Minneapolis Center
Tue 03:31:52 PM 40.6731 -94.0153 197° South 227 261 28,000  Level Minneapolis Center
Tue 03:32:53 PM 40.6136 -94.0408 198° South 227 261 28,000  Level Minneapolis Center
Tue 03:33:55 PM 40.5550 -94.0667 199° South 226 260 28,000  Level Minneapolis Center
Tue 03:34:57 PM 40.4969 -94.0900 197° South 224 258 28,000  Level Minneapolis Center
Tue 03:35:59 PM 40.4383 -94.1144 198° South 222 255 28,000  Level Minneapolis Center
Tue 03:37:01 PM 40.3678 -94.1442 198° South 224 258 28,000  Level Minneapolis Center
Tue 03:38:01 PM 40.3119 -94.1681 198° South 220 253 28,000  Level Kansas City Center
Tue 03:39:02 PM 40.2550 -94.1911 197° South 222 255 28,000  Level Kansas City Center
Tue 03:40:04 PM 40.1986 -94.2158 199° South 222 255 28,000  Level Kansas City Center
Tue 03:41:06 PM 40.1297 -94.2406 195° South 226 260 28,000  Level Kansas City Center
Tue 03:42:08 PM 40.0722 -94.2656 198° South 225 259 28,000  Level Kansas City Center
Tue 03:43:10 PM 40.0050 -94.2931 197° South 226 260 28,000  Level Kansas City Center
Tue 03:44:12 PM 39.9472 -94.3167 197° South 227 261 28,000  Level Kansas City Center
Tue 03:45:13 PM 39.8789 -94.3458 198° South 229 264 28,000  Level Kansas City Center
Tue 03:46:15 PM 39.8203 -94.3697 197° South 230 265 28,000  Level Kansas City Center
Tue 03:47:17 PM 39.7525 -94.3978 198° South 230 265 28,000  Level Kansas City Center
Tue 03:48:19 PM 39.6936 -94.4219 198° South 230 265 28,000  Level Kansas City Center
Tue 03:49:21 PM 39.6356 -94.4456 197° South 227 261 28,000  Level Kansas City Center
Tue 03:50:23 PM 39.5669 -94.4731 197° South 230 265 28,000  Level Kansas City Center
Tue 03:51:25 PM 39.5081 -94.4975 198° South 231 266 28,000  Level Kansas City Center
Tue 03:52:27 PM 39.4400 -94.5247 197° South 227 261 28,000  Level Kansas City Center
Tue 03:53:29 PM 39.3806 -94.5492 198° South 232 267 28,000  Level Kansas City Center
Tue 03:54:31 PM 39.3122 -94.5764 197° South 231 266 28,000  Level Kansas City Center
Tue 03:55:32 PM 39.2522 -94.6000 197° South 233 268 28,000  Level Kansas City Center
Tue 03:56:34 PM 39.1917 -94.6231 196° South 236 272 28,000  Level Kansas City Center
Tue 03:57:36 PM 39.1231 -94.6528 199° South 232 267 28,000  Level Kansas City Center
Tue 03:58:38 PM 39.0644 -94.6764 197° South 230 265 28,000  Level Kansas City Center
Tue 03:59:40 PM 38.9953 -94.7044 197° South 232 267 28,000  Level Kansas City Center
Tue 04:00:42 PM 38.9369 -94.7283 198° South 230 265 28,000  Level Kansas City Center
Tue 04:01:44 PM 38.8681 -94.7556 197° South 231 266 28,000  Level Kansas City Center
Tue 04:02:46 PM 38.8092 -94.7786 197° South 230 265 28,000  Level Kansas City Center
Tue 04:03:48 PM 38.7508 -94.8033 198° South 229 264 28,000  Level Kansas City Center
Tue 04:04:50 PM 38.6828 -94.8294 197° South 229 264 28,000  Level Kansas City Center
Tue 04:05:52 PM 38.6247 -94.8531 198° South 228 262 28,000  Level Kansas City Center
Tue 04:06:54 PM 38.5567 -94.8803 197° South 229 264 28,000  Level Kansas City Center
Tue 04:07:56 PM 38.4978 -94.9014 196° South 228 262 28,000  Level Kansas City Center
Tue 04:08:58 PM 38.4297 -94.9319 199° South 232 267 28,000  Level Kansas City Center
Tue 04:10:00 PM 38.3706 -94.9533 196° South 231 266 28,000  Level Kansas City Center
Tue 04:11:02 PM 38.3022 -94.9808 198° South 231 266 28,000  Level Kansas City Center
Tue 04:12:04 PM 38.2436 -95.0031 197° South 230 265 28,000  Level Kansas City Center
Tue 04:13:06 PM 38.1747 -95.0286 196° South 230 265 28,000  Level Kansas City Center
Tue 04:14:08 PM 38.1147 -95.0542 199° South 234 269 28,000  Level Kansas City Center
Tue 04:15:10 PM 38.0447 -95.0808 197° South 235 270 28,000  Level Kansas City Center
Tue 04:17:00 PM 37.9326 -95.1122 192° South  Level FlightAware Approximate
Tue 04:18:16 PM 37.8594 -95.1531 192° South 234 269 28,000  Level Kansas City Center
Tue 04:19:18 PM 37.7964 -95.1750 195° South 234 269 28,000  Level Kansas City Center
Tue 04:20:20 PM 37.7206 -95.2081 199° South 238 274 28,000  Level Kansas City Center
Tue 04:21:22 PM 37.6575 -95.2306 196° South 237 273 28,000  Level Kansas City Center
Tue 04:22:24 PM 37.5944 -95.2522 195° South 235 270 28,000  Level Kansas City Center
Tue 04:23:26 PM 37.5306 -95.2806 199° South 239 275 28,000  Level Kansas City Center
Tue 04:24:29 PM 37.4672 -95.3050 197° South 239 275 28,000  Level Kansas City Center
Tue 04:25:31 PM 37.4031 -95.3281 196° South 239 275 28,000  Level Kansas City Center
Tue 04:26:33 PM 37.3400 -95.3514 196° South 237 273 28,000  Level Kansas City Center
Tue 04:27:35 PM 37.2628 -95.3814 197° South 239 275 28,000  Level Kansas City Center
Tue 04:28:37 PM 37.1981 -95.4061 197° South 241 277 28,000  Level Kansas City Center
Tue 04:29:39 PM 37.1347 -95.4308 197° South 239 275 28,000  Level Kansas City Center
Tue 04:30:41 PM 37.0703 -95.4553 197° South 241 277 28,000  Level Kansas City Center
Tue 04:31:43 PM 37.0064 -95.4783 196° South 239 275 28,000  Level Kansas City Center
Tue 04:32:45 PM 36.9419 -95.5039 198° South 241 277 28,000  Level Kansas City Center
Tue 04:33:47 PM 36.8636 -95.5339 197° South 244 281 28,000  Level Kansas City Center
Tue 04:34:49 PM 36.7992 -95.5578 197° South 243 280 28,000  Level Kansas City Center
Tue 04:35:51 PM 36.7353 -95.5833 198° South 242 278 28,000  Level Kansas City Center
Tue 04:36:53 PM 36.6706 -95.6072 196° South 242 278 28,000  Level Kansas City Center
Tue 04:37:55 PM 36.5981 -95.6342 197° South 244 281 28,000  Level Kansas City Center
Tue 04:38:57 PM 36.5336 -95.6586 197° South 243 280 28,000  Level Kansas City Center
Tue 04:39:59 PM 36.4689 -95.6814 196° South 242 278 28,000  Level Kansas City Center
Tue 04:41:01 PM 36.4053 -95.7061 197° South 240 276 28,000  Level Kansas City Center
Tue 04:42:03 PM 36.3417 -95.7289 196° South 238 274 28,000  Level Kansas City Center
Tue 04:43:05 PM 36.2789 -95.7511 196° South 236 272 28,000  Level Kansas City Center
Tue 04:44:08 PM 36.2125 -95.7764 197° South 236 272 28,000  Level Kansas City Center
Tue 04:45:09 PM 36.1367 -95.8039 196° South 235 270 28,000  Level Kansas City Center
Tue 04:46:11 PM 36.0731 -95.8269 196° South 238 274 28,000  Level Kansas City Center
Tue 04:47:13 PM 36.0094 -95.8503 197° South 237 273 28,000  Level Kansas City Center
Tue 04:48:15 PM 35.9461 -95.8742 197° South 238 274 28,000  Level Kansas City Center
Tue 04:49:17 PM 35.8817 -95.8975 196° South 240 276 28,000  Level Kansas City Center
Tue 04:50:20 PM 35.8181 -95.9200 196° South 238 274 28,000  Level Kansas City Center
Tue 04:51:22 PM 35.7419 -95.9489 197° South 237 273 28,000  Level Kansas City Center
Tue 04:52:24 PM 35.6781 -95.9714 196° South 239 275 28,000  Level Kansas City Center
Tue 04:53:26 PM 35.6147 -95.9964 198° South 239 275 28,000  Level Kansas City Center
Tue 04:54:28 PM 35.5508 -96.0183 196° South 237 273 28,000  Level Kansas City Center
Tue 04:55:30 PM 35.4878 -96.0411 196° South 236 272 28,000 -242 Level Kansas City Center
Tue 04:56:32 PM 35.4153 -96.0683 197° South 238 274 27,500 -581 Descending Kansas City Center
Tue 04:57:34 PM 35.3456 -96.0928 196° South 251 289 26,800 -703 Descending Kansas City Center
Tue 04:58:57 PM 35.2392 -96.1350 198° South 259 298 25,800 -917 Descending Fort Worth Center
Tue 04:59:58 PM 35.1686 -96.1589 195° South 264 304 24,600 -1,140 Descending Fort Worth Center
Tue 05:00:58 PM 35.0978 -96.1853 197° South 264 304 23,500 -1,160 Descending Fort Worth Center
Tue 05:01:57 PM 35.0272 -96.2092 195° South 264 304 22,300 -1,100 Descending Fort Worth Center
Tue 05:02:58 PM 34.9586 -96.2356 197° South 264 304 21,300 -1,100 Descending Fort Worth Center
Tue 05:04:00 PM 34.8934 -96.2358 197° South  Level FlightAware Approximate
Tue 05:04:57 PM 34.8192 -96.2831 197° South 264 304 19,000  Level Fort Worth Center
Tue 05:05:58 PM 34.7506 -96.3092 197° South 264 304 17,800 -1,050 Descending Fort Worth Center
Tue 05:06:57 PM 34.6842 -96.3328 196° South 259 298 16,900 -958 Descending Fort Worth Center
Tue 05:07:57 PM 34.6175 -96.3564 196° South 259 298 15,900 -1,041 Descending Fort Worth Center
Tue 05:08:58 PM 34.5531 -96.3797 197° South 259 298 14,800 -1,100 Descending Fort Worth Center
Tue 05:09:57 PM 34.4864 -96.4033 196° South 259 298 13,700 -1,109 Descending Fort Worth Center
Tue 05:10:57 PM 34.4242 -96.4267 197° South 249 287 12,600 -1,041 Descending Fort Worth Center
Tue 05:11:58 PM 34.3617 -96.4500 197° South 239 275 11,600 -1,000 Descending Fort Worth Center
Tue 05:12:57 PM 34.3014 -96.4708 196° South 239 275 10,600 -1,059 Descending Fort Worth Center
Tue 05:13:57 PM 34.2431 -96.4939 198° South 228 262 9,500 -1,150 Descending Fort Worth Center
Tue 05:14:57 PM 34.1869 -96.5247 204° Southwest 228 262 8,300 -1,250 Descending Fort Worth Center
Tue 05:15:57 PM 34.1328 -96.5553 205° Southwest 228 262 7,000 -1,041 Descending Fort Worth Center
Tue 05:16:58 PM 34.0808 -96.5833 204° Southwest 221 254 6,200 -446 Descending Fort Worth Center
Tue 05:17:58 PM 34.0308 -96.6039 199° South 206 237 6,100 -403 Descending Fort Worth Center
Tue 05:18:57 PM 33.9872 -96.6269 204° Southwest 191 220 5,400 -1,008 Descending Fort Worth Center
Tue 05:19:57 PM 33.9414 -96.6450 198° South 186 214 4,100 -1,041 Descending Fort Worth Center
Tue 05:20:58 PM 33.8997 -96.6653 202° Southwest 181 208 3,300 2,926 Descending Fort Worth Center
Tue 05:21:58 PM 33.8581 -96.6631 177° South 181 208 10,000 -252 Climbing Fort Worth Center
Tue 05:22:57 PM 33.8228 -96.6708 190° South 211 243 2,800 -3,600 Descending Fort Worth Center
Tue 05:23:58 PM 33.7664 -96.6739 183° South 186 214 2,800 3,570 Level Fort Worth Center
Tue 05:24:58 PM 33.7142 -96.6819 187° South 186 214 10,000 3,630 Climbing Fort Worth Center
Tue 05:25:57 PM 33.6619 -96.6872 185° South 186 214 10,000  Level Fort Worth Center

Login

Don't have an account? Register now (free) for customized features, flight alerts, and more!